Time;durP1;ratioP1;P1;durP2;ratioP2;P2;SDS_P1;SDS_P2;PMS_P1;PMS_P2;Temp;Humidity;BMP_temperature;BMP_pressure;BME280_temperature;BME280_humidity;BME280_pressure;Samples;Min_cycle;Max_cycle;Signal;HPM_P1;HPM_P2
2023/07/06 00:01:56;;;;;;;8.02;2.45;;;18.90;70.60;;;;;;4994732;28;20383;-67
2023/07/06 00:04:42;;;;;;;4.15;2.25;;;18.90;70.90;;;;;;4999319;28;20030;-69
2023/07/06 00:07:28;;;;;;;4.00;2.40;;;18.90;71.10;;;;;;5004951;28;20046;-67
2023/07/06 00:10:14;;;;;;;6.60;2.58;;;18.80;71.30;;;;;;5008341;28;20042;-68
2023/07/06 00:13:01;;;;;;;6.18;2.60;;;18.80;71.50;;;;;;5008552;28;20515;-68
2023/07/06 00:15:48;;;;;;;3.15;1.83;;;18.80;71.70;;;;;;5008852;28;20038;-67
2023/07/06 00:18:34;;;;;;;4.05;2.45;;;18.80;72.00;;;;;;5008365;28;20120;-67
2023/07/06 00:21:20;;;;;;;6.28;2.10;;;18.70;72.00;;;;;;5002323;28;20048;-67
2023/07/06 00:24:07;;;;;;;5.10;2.30;;;18.70;72.30;;;;;;5004715;28;20038;-67
2023/07/06 00:26:53;;;;;;;5.10;2.45;;;18.60;72.40;;;;;;4991014;28;20113;-67
2023/07/06 00:29:46;;;;;;;3.78;2.08;;;18.60;72.60;;;;;;5001522;28;20030;-67
2023/07/06 00:32:32;;;;;;;4.43;2.40;;;18.50;72.70;;;;;;5011603;28;20030;-67
2023/07/06 00:35:20;;;;;;;4.70;2.42;;;18.50;72.80;;;;;;5007622;28;20046;-67
2023/07/06 00:38:11;;;;;;;5.20;2.63;;;18.50;72.90;;;;;;5002591;28;20726;-67
2023/07/06 00:40:57;;;;;;;5.18;2.47;;;18.40;73.00;;;;;;5006495;28;20041;-67
2023/07/06 00:43:52;;;;;;;8.02;2.42;;;18.40;73.30;;;;;;5009957;28;20065;-67
2023/07/06 00:46:40;;;;;;;8.23;2.70;;;18.40;73.60;;;;;;4990095;28;20034;-67
2023/07/06 00:49:26;;;;;;;4.40;2.35;;;18.30;73.70;;;;;;5000705;28;20118;-67
2023/07/06 00:52:13;;;;;;;5.97;2.63;;;18.20;73.90;;;;;;5010425;28;20038;-67
2023/07/06 00:55:01;;;;;;;3.95;2.35;;;18.10;74.10;;;;;;5001726;28;20041;-67
2023/07/06 00:57:51;;;;;;;5.88;2.75;;;18.20;74.30;;;;;;4998796;28;20049;-66
2023/07/06 01:00:38;;;;;;;5.65;2.55;;;18.10;74.60;;;;;;5009078;28;20049;-67
2023/07/06 01:03:24;;;;;;;4.90;2.47;;;18.00;74.70;;;;;;5005079;28;20406;-67
2023/07/06 01:06:20;;;;;;;3.63;2.00;;;18.00;74.90;;;;;;4999148;28;20030;-67
2023/07/06 01:09:07;;;;;;;5.82;2.83;;;18.00;75.40;;;;;;5000857;28;20041;-67
2023/07/06 01:11:55;;;;;;;3.78;2.30;;;17.90;75.40;;;;;;4992437;28;20062;-67
2023/07/06 01:14:41;;;;;;;8.18;2.53;;;17.90;75.50;;;;;;5008410;28;20561;-67
2023/07/06 01:17:38;;;;;;;8.10;2.22;;;17.90;75.70;;;;;;5010254;28;20072;-67
2023/07/06 01:20:44;;;;;;;3.53;2.22;;;17.80;76.00;;;;;;5006851;28;20048;-67
2023/07/06 01:23:49;;;;;;;7.50;3.10;;;17.80;76.20;;;;;;5006064;28;20471;-67
2023/07/06 01:26:47;;;;;;;5.50;2.85;;;17.80;76.30;;;;;;5008993;28;20612;-67
2023/07/06 01:29:36;;;;;;;5.45;3.08;;;17.70;76.20;;;;;;5000477;28;20038;-67
2023/07/06 01:32:26;;;;;;;5.07;2.40;;;17.70;76.40;;;;;;5010340;28;20517;-67
2023/07/06 01:35:19;;;;;;;4.47;2.72;;;17.70;76.70;;;;;;4998316;28;20030;-67
2023/07/06 01:38:05;;;;;;;6.32;2.85;;;17.60;76.70;;;;;;5008198;28;20690;-67
2023/07/06 01:40:51;;;;;;;5.82;2.53;;;17.60;77.00;;;;;;5003585;28;20026;-68
2023/07/06 01:43:37;;;;;;;3.78;2.35;;;17.60;77.20;;;;;;5004885;28;20022;-68
2023/07/06 01:46:24;;;;;;;3.95;2.85;;;17.60;77.40;;;;;;5001454;28;20036;-68
2023/07/06 01:49:10;;;;;;;13.40;3.85;;;17.60;77.50;;;;;;5006843;28;20045;-67
2023/07/06 01:52:08;;;;;;;4.20;2.50;;;17.50;77.60;;;;;;5010087;28;20037;-70
2023/07/06 01:55:11;;;;;;;6.03;3.42;;;17.50;77.70;;;;;;5007432;28;20036;-68
2023/07/06 01:58:09;;;;;;;4.90;2.95;;;17.50;77.80;;;;;;5008109;28;20046;-68
2023/07/06 02:01:09;;;;;;;7.85;2.90;;;17.50;78.00;;;;;;5000902;28;20486;-68
2023/07/06 02:03:56;;;;;;;6.43;2.92;;;17.50;78.00;;;;;;5007299;28;20030;-69
2023/07/06 02:06:42;;;;;;;3.70;2.42;;;17.50;78.10;;;;;;5009388;28;20042;-68
2023/07/06 02:09:28;;;;;;;7.25;2.90;;;17.50;78.10;;;;;;5004369;28;20065;-68
2023/07/06 02:12:14;;;;;;;4.70;2.85;;;17.50;78.20;;;;;;4996914;28;20050;-68
2023/07/06 02:15:00;;;;;;;4.45;2.95;;;17.50;78.20;;;;;;5009250;28;20038;-68
2023/07/06 02:17:47;;;;;;;5.80;3.00;;;17.50;78.40;;;;;;5013765;28;20037;-68
2023/07/06 02:20:34;;;;;;;5.38;2.58;;;17.50;78.30;;;;;;5000667;28;20033;-68
2023/07/06 02:23:20;;;;;;;5.78;3.10;;;17.60;78.30;;;;;;5010871;28;20398;-68
2023/07/06 02:26:06;;;;;;;4.90;2.78;;;17.50;78.30;;;;;;5007118;28;20069;-67
2023/07/06 02:28:52;;;;;;;4.53;2.92;;;17.50;78.40;;;;;;4994680;28;20423;-68
2023/07/06 02:31:38;;;;;;;7.45;2.95;;;17.50;78.40;;;;;;5011513;28;20510;-68
2023/07/06 02:34:27;;;;;;;8.50;3.10;;;17.50;78.40;;;;;;5008511;28;20053;-68
2023/07/06 02:37:13;;;;;;;5.28;3.10;;;17.50;78.60;;;;;;4992345;28;20046;-68
2023/07/06 02:40:00;;;;;;;5.57;2.78;;;17.50;78.50;;;;;;5000674;28;20463;-66
2023/07/06 02:42:46;;;;;;;5.75;3.10;;;17.50;78.60;;;;;;4995142;28;20475;-67
2023/07/06 02:45:32;;;;;;;4.40;2.78;;;17.50;78.70;;;;;;5000704;28;20030;-67
2023/07/06 02:48:18;;;;;;;5.32;3.50;;;17.50;78.80;;;;;;4994614;28;20045;-68
2023/07/06 02:51:04;;;;;;;4.45;2.92;;;17.50;78.90;;;;;;5006735;28;20041;-67
2023/07/06 02:53:50;;;;;;;5.35;3.10;;;17.40;79.00;;;;;;4999587;28;20474;-67
2023/07/06 02:56:35;;;;;;;5.97;2.95;;;17.40;79.10;;;;;;5000416;28;20550;-67
2023/07/06 02:59:22;;;;;;;4.47;3.03;;;17.40;79.10;;;;;;5006387;28;20506;-67
2023/07/06 03:02:08;;;;;;;6.53;3.15;;;17.40;79.30;;;;;;5008405;28;20042;-67
2023/07/06 03:04:54;;;;;;;6.10;2.67;;;17.40;79.30;;;;;;5007620;28;20466;-67
2023/07/06 03:07:41;;;;;;;6.97;2.80;;;17.40;79.50;;;;;;5011515;28;20422;-67
2023/07/06 03:10:27;;;;;;;5.20;2.42;;;17.40;79.50;;;;;;5009272;28;20045;-67
2023/07/06 03:13:15;;;;;;;4.88;2.67;;;17.40;79.60;;;;;;5011696;28;20133;-67
2023/07/06 03:16:03;;;;;;;3.97;2.60;;;17.40;79.60;;;;;;4994676;28;20038;-68
2023/07/06 03:18:49;;;;;;;6.35;3.15;;;17.40;79.70;;;;;;4993156;28;20077;-67
2023/07/06 03:21:37;;;;;;;4.78;2.80;;;17.40;79.80;;;;;;5010601;28;20065;-67
2023/07/06 03:24:23;;;;;;;5.40;2.80;;;17.30;79.80;;;;;;4999970;28;20037;-68
2023/07/06 03:27:10;;;;;;;4.20;2.47;;;17.30;80.00;;;;;;5011004;28;20467;-68
2023/07/06 03:29:56;;;;;;;5.05;2.75;;;17.30;80.20;;;;;;5009542;28;20030;-68
2023/07/06 03:32:42;;;;;;;5.18;2.70;;;17.30;80.40;;;;;;5012697;28;20029;-68
2023/07/06 03:35:28;;;;;;;6.53;2.88;;;17.30;80.50;;;;;;5008554;28;20049;-68
2023/07/06 03:38:14;;;;;;;5.20;3.25;;;17.30;80.60;;;;;;5011352;28;20741;-67
2023/07/06 03:41:03;;;;;;;6.22;2.67;;;17.30;80.80;;;;;;5004945;28;20034;-68
2023/07/06 03:43:51;;;;;;;5.28;2.80;;;17.30;80.90;;;;;;4992429;28;20030;-68
2023/07/06 03:46:37;;;;;;;3.30;2.33;;;17.30;81.00;;;;;;5010089;28;20041;-66
2023/07/06 03:49:23;;;;;;;5.68;3.17;;;17.30;81.00;;;;;;5008833;28;20040;-66
2023/07/06 03:52:09;;;;;;;6.78;3.03;;;17.30;81.10;;;;;;5000133;28;20774;-66
2023/07/06 03:54:59;;;;;;;5.07;2.67;;;17.40;81.30;;;;;;5006418;28;20037;-66
2023/07/06 03:57:46;;;;;;;10.30;2.72;;;17.40;81.40;;;;;;5006818;28;20103;-66
2023/07/06 04:00:34;;;;;;;4.90;2.67;;;17.40;81.70;;;;;;5004872;28;20377;-66
2023/07/06 04:03:20;;;;;;;5.25;2.83;;;17.40;81.80;;;;;;5009391;28;20038;-68
2023/07/06 04:06:06;;;;;;;4.82;2.85;;;17.50;81.90;;;;;;5008533;28;20453;-67
2023/07/06 04:08:56;;;;;;;6.47;3.45;;;17.50;82.00;;;;;;5008582;28;20052;-68
2023/07/06 04:11:42;;;;;;;4.75;2.72;;;17.50;82.20;;;;;;4991167;28;20116;-67
2023/07/06 04:14:29;;;;;;;5.90;2.70;;;17.50;82.10;;;;;;5004221;28;20429;-66
2023/07/06 04:17:16;;;;;;;4.70;2.90;;;17.60;82.10;;;;;;4992123;28;20507;-66
2023/07/06 04:20:18;;;;;;;3.70;2.67;;;17.60;82.10;;;;;;5005532;28;20395;-66
2023/07/06 04:23:05;;;;;;;4.80;2.70;;;17.60;82.20;;;;;;5010102;28;20034;-66
2023/07/06 04:25:52;;;;;;;5.10;2.78;;;17.70;82.10;;;;;;5007514;28;20041;-66
2023/07/06 04:28:40;;;;;;;5.72;3.10;;;17.70;82.00;;;;;;4995291;28;20038;-67
2023/07/06 04:31:27;;;;;;;5.95;3.10;;;17.70;82.10;;;;;;5003847;28;20036;-68
2023/07/06 04:34:14;;;;;;;4.68;2.97;;;17.70;82.00;;;;;;5003119;28;20041;-68
2023/07/06 04:37:02;;;;;;;4.05;2.53;;;17.70;82.00;;;;;;5000137;28;20486;-67
2023/07/06 04:39:48;;;;;;;5.88;2.85;;;17.80;82.00;;;;;;5007019;28;20048;-67
2023/07/06 04:42:34;;;;;;;5.55;3.17;;;17.80;82.00;;;;;;4991145;28;20173;-67
2023/07/06 04:45:24;;;;;;;4.75;2.78;;;17.90;82.10;;;;;;5008168;28;20033;-67
2023/07/06 04:48:10;;;;;;;5.60;2.90;;;17.90;82.20;;;;;;5008338;28;20501;-67
2023/07/06 04:50:56;;;;;;;4.70;2.88;;;17.90;82.20;;;;;;5009375;28;20034;-68
2023/07/06 04:53:42;;;;;;;5.57;3.22;;;17.90;82.20;;;;;;5009708;28;20041;-66
2023/07/06 04:56:28;;;;;;;5.03;2.38;;;17.90;82.20;;;;;;5009876;28;20041;-68
2023/07/06 04:59:15;;;;;;;6.82;2.50;;;18.00;82.40;;;;;;5008684;28;20113;-66
2023/07/06 05:02:02;;;;;;;6.18;2.90;;;18.00;82.50;;;;;;5006180;28;20037;-70
2023/07/06 05:04:48;;;;;;;5.40;2.50;;;18.10;82.60;;;;;;5001658;28;20399;-69
2023/07/06 05:07:35;;;;;;;5.80;2.88;;;18.10;82.70;;;;;;4997470;28;20038;-69
2023/07/06 05:10:21;;;;;;;5.72;2.90;;;18.20;83.00;;;;;;4999249;28;20538;-70
2023/07/06 05:13:07;;;;;;;3.72;2.45;;;18.20;83.00;;;;;;5000793;28;20131;-70
2023/07/06 05:15:53;;;;;;;4.18;2.53;;;18.30;83.10;;;;;;4998399;28;20128;-69
2023/07/06 05:18:39;;;;;;;7.88;3.08;;;18.30;83.10;;;;;;5005188;28;20034;-69
2023/07/06 05:21:25;;;;;;;6.28;2.22;;;18.30;82.90;;;;;;4991520;28;20045;-69
2023/07/06 05:24:12;;;;;;;5.15;2.45;;;18.40;82.80;;;;;;5003682;28;20093;-70
2023/07/06 05:26:58;;;;;;;4.60;2.63;;;18.50;82.80;;;;;;4991474;28;20070;-70
2023/07/06 05:29:44;;;;;;;4.72;2.30;;;18.50;82.80;;;;;;4995039;28;20030;-69
2023/07/06 05:32:30;;;;;;;3.17;2.00;;;18.60;82.70;;;;;;5008750;28;20038;-71
2023/07/06 05:35:17;;;;;;;4.50;2.47;;;18.60;82.70;;;;;;5002080;28;20633;-70
2023/07/06 05:38:03;;;;;;;5.38;2.58;;;18.70;82.80;;;;;;5000677;28;20491;-71
2023/07/06 05:40:49;;;;;;;4.25;2.17;;;18.70;82.70;;;;;;5006944;28;20030;-70
2023/07/06 05:43:35;;;;;;;6.20;1.83;;;18.70;82.80;;;;;;5010693;28;20038;-72
2023/07/06 05:46:23;;;;;;;5.45;2.72;;;18.70;82.80;;;;;;4999995;28;20393;-71
2023/07/06 05:49:09;;;;;;;5.30;2.40;;;18.70;82.90;;;;;;5007530;28;20120;-70
2023/07/06 05:51:55;;;;;;;7.30;2.60;;;18.70;83.10;;;;;;5008706;28;20022;-70
2023/07/06 05:54:41;;;;;;;3.40;2.13;;;18.80;83.00;;;;;;5008901;28;20065;-70
2023/07/06 05:57:27;;;;;;;4.93;2.20;;;18.80;82.90;;;;;;5013870;28;20048;-69
2023/07/06 06:00:15;;;;;;;3.17;2.10;;;18.90;82.90;;;;;;5010153;28;20037;-68
2023/07/06 06:03:01;;;;;;;5.00;2.35;;;18.90;82.70;;;;;;5012038;28;20050;-68
2023/07/06 06:05:49;;;;;;;3.33;2.38;;;19.00;82.60;;;;;;5011448;28;20046;-68
2023/07/06 06:08:35;;;;;;;3.88;1.70;;;19.00;82.30;;;;;;5012445;28;20042;-69
2023/07/06 06:11:21;;;;;;;4.40;2.92;;;19.10;82.20;;;;;;4999821;28;20550;-68
2023/07/06 06:14:07;;;;;;;4.82;2.35;;;19.10;82.20;;;;;;5008565;28;20048;-68
2023/07/06 06:16:53;;;;;;;4.45;2.00;;;19.10;82.30;;;;;;4990270;28;20073;-68
2023/07/06 06:19:39;;;;;;;3.55;1.90;;;19.20;82.10;;;;;;4995253;28;20026;-68
2023/07/06 06:22:25;;;;;;;4.22;1.98;;;19.20;81.90;;;;;;5011787;28;20030;-68
2023/07/06 06:25:11;;;;;;;4.00;2.00;;;19.30;81.80;;;;;;5008074;28;20038;-68
2023/07/06 06:27:57;;;;;;;4.80;1.88;;;19.30;81.80;;;;;;5007846;28;20068;-68
2023/07/06 06:30:43;;;;;;;5.00;2.50;;;19.40;81.80;;;;;;5009404;28;20474;-68
2023/07/06 06:33:29;;;;;;;6.75;2.30;;;19.50;81.60;;;;;;5000769;28;20686;-70
2023/07/06 06:36:19;;;;;;;6.97;2.10;;;19.50;81.30;;;;;;5004609;28;20034;-67
2023/07/06 06:39:06;;;;;;;13.82;3.25;;;19.60;81.10;;;;;;5009917;28;20165;-67
2023/07/06 06:41:52;;;;;;;5.80;1.65;;;19.60;80.80;;;;;;4993522;28;20734;-68
2023/07/06 06:44:38;;;;;;;5.72;2.47;;;19.60;80.50;;;;;;5004762;28;20124;-67
2023/07/06 06:47:24;;;;;;;3.70;1.90;;;19.70;80.40;;;;;;5012929;28;20088;-67
2023/07/06 06:50:14;;;;;;;3.47;2.10;;;19.70;79.80;;;;;;5008275;28;20053;-68
2023/07/06 06:53:00;;;;;;;4.50;1.95;;;19.70;79.70;;;;;;4997075;28;20384;-68
2023/07/06 06:55:46;;;;;;;5.25;2.05;;;19.80;79.50;;;;;;5006391;28;20046;-68
2023/07/06 06:58:31;;;;;;;4.35;1.77;;;19.80;79.20;;;;;;5006913;28;20053;-68
2023/07/06 07:01:17;;;;;;;4.82;1.90;;;19.80;78.80;;;;;;5009445;28;20032;-67
2023/07/06 07:04:04;;;;;;;8.27;2.33;;;19.90;78.90;;;;;;5005016;28;20509;-67
2023/07/06 07:06:50;;;;;;;5.40;1.83;;;19.90;78.80;;;;;;5004067;28;20041;-66
2023/07/06 07:09:37;;;;;;;3.05;1.83;;;20.00;78.80;;;;;;5002958;28;20030;-68
2023/07/06 07:12:23;;;;;;;3.65;2.10;;;20.00;78.20;;;;;;4965387;28;1118205;-68
2023/07/06 07:15:11;;;;;;;4.57;2.00;;;20.00;77.80;;;;;;4998762;28;20084;-68
2023/07/06 07:17:59;;;;;;;4.03;2.58;;;20.00;78.10;;;;;;5000470;28;20033;-68
2023/07/06 07:20:52;;;;;;;3.50;1.98;;;20.00;78.00;;;;;;5005948;28;20437;-68
2023/07/06 07:23:46;;;;;;;4.13;1.83;;;20.10;77.70;;;;;;5002593;28;20030;-68
2023/07/06 07:26:32;;;;;;;2.78;1.45;;;20.10;77.40;;;;;;4993558;28;20046;-68
2023/07/06 07:29:19;;;;;;;3.90;2.45;;;20.20;77.30;;;;;;5004637;28;20512;-67
2023/07/06 07:32:06;;;;;;;3.47;1.58;;;20.20;77.00;;;;;;4995057;28;20147;-68
2023/07/06 07:34:51;;;;;;;6.18;2.00;;;20.30;76.60;;;;;;4997942;28;20125;-68
2023/07/06 07:37:38;;;;;;;2.83;1.35;;;20.30;76.50;;;;;;4991305;28;20034;-69
2023/07/06 07:40:24;;;;;;;10.77;1.95;;;20.30;76.40;;;;;;5001280;28;20038;-68
2023/07/06 07:43:10;;;;;;;3.78;1.90;;;20.30;76.50;;;;;;5012398;28;20042;-67
2023/07/06 07:46:00;;;;;;;4.00;1.92;;;20.40;76.80;;;;;;5002981;28;20030;-68
2023/07/06 07:48:49;;;;;;;3.63;2.05;;;20.50;76.50;;;;;;4992823;28;20036;-68
2023/07/06 07:51:35;;;;;;;4.05;2.05;;;20.50;76.30;;;;;;5008879;28;20030;-68
2023/07/06 07:54:22;;;;;;;4.53;1.60;;;20.60;76.50;;;;;;5008392;28;20048;-66
2023/07/06 07:57:08;;;;;;;2.53;1.67;;;20.60;75.90;;;;;;4994488;28;20140;-69
2023/07/06 07:59:54;;;;;;;1.95;1.52;;;20.70;75.70;;;;;;5005104;28;20161;-69
2023/07/06 08:02:40;;;;;;;2.70;1.50;;;20.80;75.80;;;;;;5009004;28;20531;-69
2023/07/06 08:05:26;;;;;;;5.13;1.80;;;20.90;75.60;;;;;;5008075;28;20479;-69
2023/07/06 08:08:12;;;;;;;3.33;1.63;;;21.00;75.70;;;;;;5011033;28;20049;-69
2023/07/06 08:11:03;;;;;;;4.32;1.77;;;21.10;74.60;;;;;;4993538;28;20539;-68
2023/07/06 08:13:53;;;;;;;4.22;1.70;;;21.10;73.90;;;;;;4996595;28;20049;-68
2023/07/06 08:16:42;;;;;;;2.85;1.40;;;21.10;73.40;;;;;;4994470;28;20044;-68
2023/07/06 08:19:28;;;;;;;5.13;1.50;;;21.20;73.00;;;;;;4999396;28;20044;-68
2023/07/06 08:22:14;;;;;;;8.57;1.90;;;21.30;73.30;;;;;;5007703;28;20092;-68
2023/07/06 08:25:00;;;;;;;2.10;1.42;;;21.30;73.30;;;;;;5006218;28;20029;-66
2023/07/06 08:27:46;;;;;;;4.53;1.95;;;21.40;73.00;;;;;;5005282;28;20042;-66
2023/07/06 08:30:33;;;;;;;4.28;1.65;;;21.40;72.30;;;;;;5000794;28;20038;-66
2023/07/06 08:33:21;;;;;;;6.50;1.50;;;21.50;72.50;;;;;;5008902;28;20037;-65
2023/07/06 08:36:08;;;;;;;2.80;1.33;;;21.60;72.70;;;;;;5007517;28;20089;-65
2023/07/06 08:38:56;;;;;;;8.77;1.88;;;21.70;72.40;;;;;;5005622;28;20034;-65
2023/07/06 08:41:46;;;;;;;2.53;1.70;;;21.80;71.80;;;;;;5007966;28;20048;-65
2023/07/06 08:44:32;;;;;;;13.82;2.50;;;21.80;71.60;;;;;;4988507;28;20517;-65
2023/07/06 08:47:19;;;;;;;99.95;11.55;;;21.90;71.80;;;;;;5000635;28;20033;-65
2023/07/06 08:50:08;;;;;;;13.70;3.28;;;22.00;72.10;;;;;;5002080;28;20088;-65
2023/07/06 08:52:56;;;;;;;29.55;4.20;;;22.00;71.50;;;;;;5004402;28;20037;-64
2023/07/06 08:55:43;;;;;;;33.95;3.97;;;22.20;71.30;;;;;;5006792;28;20038;-65
2023/07/06 08:58:32;;;;;;;36.55;5.78;;;22.30;71.40;;;;;;5009261;28;20487;-65
2023/07/06 09:01:23;;;;;;;13.43;2.70;;;22.40;71.40;;;;;;5008749;28;20032;-65
2023/07/06 09:04:16;;;;;;;8.63;2.35;;;22.50;71.50;;;;;;5006215;28;20399;-65
2023/07/06 09:07:02;;;;;;;16.40;3.47;;;22.60;71.30;;;;;;5001183;28;20614;-65
2023/07/06 09:09:49;;;;;;;12.38;2.65;;;22.70;70.90;;;;;;4995372;28;20466;-65
2023/07/06 09:12:36;;;;;;;18.40;3.08;;;22.70;70.10;;;;;;5004965;28;20493;-65
2023/07/06 09:15:30;;;;;;;9.20;2.38;;;22.80;70.30;;;;;;5007538;28;20029;-64
2023/07/06 09:18:17;;;;;;;9.40;2.47;;;23.00;70.00;;;;;;5004178;28;20510;-64
2023/07/06 09:21:04;;;;;;;4.95;1.90;;;23.20;70.40;;;;;;4992245;28;20034;-65
2023/07/06 09:23:50;;;;;;;6.07;2.20;;;23.30;69.80;;;;;;5006022;28;20109;-65
2023/07/06 09:26:37;;;;;;;3.70;1.50;;;23.40;70.00;;;;;;5005802;28;20732;-65
2023/07/06 09:29:33;;;;;;;5.22;2.05;;;23.60;69.80;;;;;;5007628;28;20212;-65
2023/07/06 09:32:21;;;;;;;5.28;2.20;;;23.80;68.70;;;;;;5007055;28;20045;-65
2023/07/06 09:35:20;;;;;;;7.95;1.63;;;23.90;68.80;;;;;;5005291;28;20042;-65
2023/07/06 09:38:11;;;;;;;6.30;2.00;;;23.90;68.30;;;;;;5008472;28;20038;-65
2023/07/06 09:40:57;;;;;;;7.70;2.03;;;24.00;68.10;;;;;;5004405;28;20084;-65
2023/07/06 09:43:43;;;;;;;5.30;2.15;;;24.10;67.80;;;;;;5006696;28;20135;-65
2023/07/06 09:46:36;;;;;;;3.67;1.52;;;24.20;67.50;;;;;;4990159;28;20030;-65
2023/07/06 09:49:37;;;;;;;12.13;2.00;;;24.20;67.80;;;;;;4989290;28;20041;-66
2023/07/06 09:52:24;;;;;;;21.88;3.28;;;24.20;67.80;;;;;;4997487;28;20030;-65
2023/07/06 09:55:33;;;;;;;13.65;2.58;;;24.20;67.30;;;;;;5008743;28;20034;-65
2023/07/06 09:58:24;;;;;;;9.32;2.05;;;24.30;66.70;;;;;;4996637;28;20089;-65
2023/07/06 10:01:32;;;;;;;20.70;3.03;;;24.40;66.70;;;;;;5009171;28;20038;-66
2023/07/06 10:04:39;;;;;;;19.42;3.47;;;24.50;66.50;;;;;;4991483;28;20073;-65
2023/07/06 10:07:30;;;;;;;6.50;1.60;;;24.50;66.60;;;;;;5009196;28;20022;-65
2023/07/06 10:10:30;;;;;;;9.60;1.73;;;24.70;66.20;;;;;;5007607;28;20486;-65
2023/07/06 10:13:53;;;;;;;5.15;1.85;;;24.70;66.30;;;;;;5000184;28;20058;-66
2023/07/06 10:17:03;;;;;;;3.50;1.88;;;24.70;66.40;;;;;;5006773;28;20053;-65
2023/07/06 10:20:17;;;;;;;2.65;1.52;;;24.70;66.00;;;;;;4998480;28;20031;-65
2023/07/06 10:23:19;;;;;;;11.93;2.65;;;24.70;65.90;;;;;;5000895;28;20525;-64
2023/07/06 10:26:20;;;;;;;11.55;2.47;;;24.80;66.00;;;;;;4992965;28;20042;-64
2023/07/06 10:29:16;;;;;;;7.20;2.55;;;24.80;65.80;;;;;;4990394;28;20045;-65
2023/07/06 10:32:09;;;;;;;14.25;1.70;;;24.90;65.80;;;;;;4988923;28;20030;-65
2023/07/06 10:35:22;;;;;;;10.32;2.15;;;24.90;65.40;;;;;;5002804;28;20073;-64
2023/07/06 10:38:10;;;;;;;6.80;1.90;;;25.00;65.50;;;;;;5009036;28;20045;-65
2023/07/06 10:41:21;;;;;;;15.73;3.10;;;25.00;65.00;;;;;;5006563;28;20037;-65
2023/07/06 10:44:44;;;;;;;8.02;2.28;;;25.10;64.40;;;;;;5009791;28;20042;-66
2023/07/06 10:47:38;;;;;;;12.25;3.08;;;25.00;64.90;;;;;;4993060;28;20030;-66
2023/07/06 10:50:26;;;;;;;13.80;2.35;;;25.10;64.20;;;;;;5003231;28;20057;-65
2023/07/06 10:53:21;;;;;;;5.35;1.90;;;25.10;64.10;;;;;;5004221;28;20506;-65
2023/07/06 10:56:17;;;;;;;6.45;2.10;;;25.10;63.20;;;;;;5009945;28;20050;-65
2023/07/06 10:59:03;;;;;;;4.50;1.58;;;25.00;63.50;;;;;;5003728;28;20030;-65
2023/07/06 11:02:05;;;;;;;6.97;1.80;;;24.90;63.10;;;;;;4993560;28;20034;-65
2023/07/06 11:04:55;;;;;;;9.77;2.47;;;25.00;63.50;;;;;;5003439;28;20035;-65
2023/07/06 11:07:49;;;;;;;5.30;2.08;;;25.00;64.10;;;;;;4999495;28;20682;-64
2023/07/06 11:10:36;;;;;;;2.95;1.70;;;25.10;63.50;;;;;;4993673;28;20108;-64
2023/07/06 11:13:25;;;;;;;9.48;2.20;;;25.10;63.90;;;;;;5005080;28;20050;-66
2023/07/06 11:16:37;;;;;;;14.40;3.80;;;25.20;64.70;;;;;;5005358;28;20052;-65
2023/07/06 11:19:36;;;;;;;10.88;2.92;;;25.40;64.40;;;;;;5006924;28;20399;-65
2023/07/06 11:22:24;;;;;;;9.07;2.15;;;25.50;64.50;;;;;;5003312;28;20038;-64
2023/07/06 11:25:12;;;;;;;10.68;2.65;;;25.60;63.30;;;;;;5010611;28;20061;-64
2023/07/06 11:28:08;;;;;;;10.32;1.83;;;25.60;63.50;;;;;;5008383;28;20038;-65
2023/07/06 11:31:24;;;;;;;4.32;1.90;;;25.60;62.70;;;;;;5000882;28;20034;-64
2023/07/06 11:34:25;;;;;;;10.25;2.22;;;25.60;62.70;;;;;;5002554;28;20153;-64
2023/07/06 11:37:29;;;;;;;12.32;2.65;;;25.70;62.30;;;;;;4994422;28;20100;-64
2023/07/06 11:40:21;;;;;;;8.57;2.22;;;25.80;62.00;;;;;;5011008;28;20033;-64
2023/07/06 11:43:29;;;;;;;8.65;2.28;;;25.90;62.80;;;;;;5002082;28;20090;-64
2023/07/06 11:46:23;;;;;;;11.18;2.30;;;25.90;62.00;;;;;;5008487;28;20038;-65
2023/07/06 11:49:31;;;;;;;7.78;2.20;;;25.90;61.70;;;;;;5008327;28;20064;-64
2023/07/06 11:52:34;;;;;;;14.40;2.35;;;25.80;62.40;;;;;;5000352;28;20505;-64
2023/07/06 11:55:49;;;;;;;3.33;1.60;;;25.60;62.00;;;;;;4993077;28;20391;-64
2023/07/06 11:58:54;;;;;;;11.15;2.38;;;25.50;61.40;;;;;;5006230;28;20041;-65
2023/07/06 12:01:46;;;;;;;8.05;1.95;;;25.40;61.70;;;;;;5008542;28;20033;-64
2023/07/06 12:04:34;;;;;;;7.30;2.25;;;25.30;61.80;;;;;;5003034;28;20738;-64
2023/07/06 12:07:26;;;;;;;5.15;1.90;;;25.30;62.00;;;;;;5011447;28;20092;-64
2023/07/06 12:10:13;;;;;;;4.70;1.85;;;25.20;62.10;;;;;;5009256;28;20567;-64
2023/07/06 12:12:59;;;;;;;4.88;1.95;;;25.10;62.50;;;;;;5008440;28;20089;-65
2023/07/06 12:15:47;;;;;;;3.00;1.80;;;25.10;62.40;;;;;;5009927;28;20026;-65
2023/07/06 12:18:34;;;;;;;4.53;1.85;;;25.10;62.50;;;;;;4998186;28;20127;-65
2023/07/06 12:21:28;;;;;;;2.45;1.60;;;25.00;62.60;;;;;;5009696;28;20049;-64
2023/07/06 12:24:17;;;;;;;4.05;1.95;;;25.00;62.60;;;;;;4997276;28;20030;-65
2023/07/06 12:27:10;;;;;;;7.20;1.90;;;25.10;61.90;;;;;;5001828;28;20065;-65
2023/07/06 12:30:06;;;;;;;3.83;1.45;;;25.20;61.70;;;;;;4992380;28;20026;-65
2023/07/06 12:32:53;;;;;;;3.80;1.63;;;25.20;61.50;;;;;;4998494;28;20044;-65
2023/07/06 12:35:40;;;;;;;4.65;2.10;;;25.20;61.70;;;;;;5009376;28;20483;-65
2023/07/06 12:38:27;;;;;;;2.40;1.48;;;25.20;61.50;;;;;;5009093;28;20494;-65
2023/07/06 12:41:16;;;;;;;5.50;1.42;;;25.20;60.70;;;;;;5009141;28;20038;-65
2023/07/06 12:44:05;;;;;;;2.33;1.45;;;25.30;60.30;;;;;;5008710;28;20032;-66
2023/07/06 12:47:01;;;;;;;1.67;1.20;;;25.30;60.30;;;;;;4990437;28;20058;-64
2023/07/06 12:49:49;;;;;;;1.63;1.23;;;25.30;60.40;;;;;;4991711;28;20045;-64
2023/07/06 12:52:37;;;;;;;3.05;1.75;;;25.50;61.00;;;;;;5004319;28;20392;-65
2023/07/06 12:55:23;;;;;;;3.08;1.58;;;25.60;60.20;;;;;;4999894;28;20040;-65
2023/07/06 12:58:28;;;;;;;3.85;1.50;;;25.80;59.90;;;;;;5009351;28;20094;-65
2023/07/06 13:01:18;;;;;;;;;;;26.00;60.00;;;;;;5009351;28;20037;-64
2023/07/06 13:04:09;;;;;;;13.10;1.65;;;26.10;60.40;;;;;;5008606;28;19917;-64
2023/07/06 13:06:55;;;;;;;3.88;1.55;;;26.20;59.30;;;;;;5006005;28;20609;-64
2023/07/06 13:09:41;;;;;;;3.60;1.23;;;26.40;59.60;;;;;;5000761;28;20026;-64
2023/07/06 13:12:31;;;;;;;1.88;1.30;;;26.30;58.80;;;;;;4993490;28;20050;-65
2023/07/06 13:15:19;;;;;;;2.25;1.20;;;26.20;59.20;;;;;;5002184;28;20118;-64
2023/07/06 13:18:15;;;;;;;2.45;1.45;;;26.10;59.40;;;;;;5007990;28;20060;-65
2023/07/06 13:21:02;;;;;;;2.13;1.40;;;26.10;58.90;;;;;;4994457;28;20034;-65
2023/07/06 13:23:53;;;;;;;3.38;2.10;;;26.10;59.20;;;;;;4996345;28;20042;-65
2023/07/06 13:26:39;;;;;;;4.97;1.55;;;26.20;60.00;;;;;;5007885;28;20053;-67
2023/07/06 13:29:27;;;;;;;2.15;1.33;;;26.40;58.50;;;;;;5006011;28;20034;-64
2023/07/06 13:32:15;;;;;;;3.40;1.70;;;26.50;58.10;;;;;;5003035;28;20042;-65
2023/07/06 13:35:01;;;;;;;2.60;1.52;;;26.60;57.10;;;;;;5002504;28;20170;-64
2023/07/06 13:37:47;;;;;;;1.88;1.35;;;26.60;56.50;;;;;;4990650;28;20471;-64
2023/07/06 13:40:36;;;;;;;3.33;1.50;;;26.60;56.30;;;;;;4999861;28;20065;-65
2023/07/06 13:43:23;;;;;;;2.70;1.60;;;26.70;56.90;;;;;;5008741;28;20034;-65
2023/07/06 13:46:10;;;;;;;2.05;1.40;;;26.70;56.50;;;;;;5001674;28;20034;-64
2023/07/06 13:48:57;;;;;;;2.08;1.50;;;26.60;56.70;;;;;;5006873;28;20046;-66
2023/07/06 13:51:43;;;;;;;2.20;1.40;;;26.60;55.90;;;;;;5005391;28;20037;-64
2023/07/06 13:54:29;;;;;;;2.40;1.20;;;26.60;55.10;;;;;;5005274;28;20503;-64
2023/07/06 13:57:15;;;;;;;4.03;1.50;;;26.70;55.60;;;;;;4997950;28;20038;-64
2023/07/06 14:00:01;;;;;;;2.08;1.65;;;26.90;56.00;;;;;;4995748;28;20093;-64
2023/07/06 14:02:50;;;;;;;2.78;1.58;;;27.00;55.50;;;;;;4998949;28;20030;-64
2023/07/06 14:05:37;;;;;;;2.88;1.20;;;27.00;53.60;;;;;;4989709;28;20147;-64
2023/07/06 14:08:25;;;;;;;2.00;1.38;;;26.90;53.00;;;;;;4993305;28;20029;-65
2023/07/06 14:11:11;;;;;;;3.35;1.48;;;27.00;53.40;;;;;;4998485;28;20038;-64
2023/07/06 14:13:57;;;;;;;10.15;1.58;;;27.00;52.20;;;;;;5005019;28;20136;-65
2023/07/06 14:16:45;;;;;;;2.03;1.30;;;26.90;52.40;;;;;;5001027;28;20042;-65
2023/07/06 14:19:33;;;;;;;2.40;1.38;;;27.00;51.80;;;;;;5007430;28;20033;-65
2023/07/06 14:22:22;;;;;;;5.50;1.33;;;27.00;51.70;;;;;;5002022;28;20045;-65
2023/07/06 14:25:23;;;;;;;4.25;1.30;;;27.00;51.40;;;;;;5006358;28;20154;-65
2023/07/06 14:28:10;;;;;;;2.45;1.65;;;27.00;51.70;;;;;;4994741;28;20038;-65
2023/07/06 14:31:02;;;;;;;1.40;1.10;;;27.20;51.00;;;;;;5003188;28;20460;-65
2023/07/06 14:33:48;;;;;;;1.45;1.20;;;27.20;50.90;;;;;;5011155;28;20501;-63
2023/07/06 14:36:34;;;;;;;1.48;1.20;;;27.30;51.30;;;;;;5004576;28;20442;-64
2023/07/06 14:39:20;;;;;;;1.27;0.90;;;27.40;51.00;;;;;;5005405;28;20491;-65
2023/07/06 14:42:13;;;;;;;1.42;0.90;;;27.40;50.30;;;;;;5010765;28;20105;-65